Time;durP1;ratioP1;P1;durP2;ratioP2;P2;SDS_P1;SDS_P2;PMS_P1;PMS_P2;Temp;Humidity;BMP_temperature;BMP_pressure;BME280_temperature;BME280_humidity;BME280_pressure;Samples;Min_cycle;Max_cycle;Signal;HPM_P1;HPM_P2
2022/10/30 07:19:28;;;;;;;14.50;3.70;;;;;;;15.47;71.45;96930.84;2101346;27;20600;-68
2022/10/30 07:20:32;;;;;;;19.40;4.05;;;;;;;16.11;69.69;96941.03;2096426;28;20421;-68
2022/10/30 07:21:33;;;;;;;16.17;3.78;;;;;;;16.20;69.03;96940.47;2077357;28;20287;-68
2022/10/30 07:22:37;;;;;;;13.70;4.57;;;;;;;16.51;68.80;96935.03;2073700;28;20625;-68
2022/10/30 07:23:39;;;;;;;12.52;3.75;;;;;;;16.63;68.32;96927.19;2072140;28;20570;-68
2022/10/30 07:24:40;;;;;;;10.30;4.50;;;;;;;16.74;67.76;96908.00;2088386;28;20214;-68
2022/10/30 07:25:45;;;;;;;18.38;4.55;;;;;;;17.73;65.81;96940.19;2088833;28;20224;-69
2022/10/30 07:26:46;;;;;;;14.75;5.05;;;;;;;18.20;63.07;96941.34;2071687;28;20301;-68
2022/10/30 07:27:51;;;;;;;9.32;3.80;;;;;;;18.43;61.82;96944.13;2072551;28;20318;-68
2022/10/30 07:28:53;;;;;;;15.88;4.55;;;;;;;17.99;62.46;96943.72;2065751;28;20630;-69
2022/10/30 07:29:54;;;;;;;16.17;4.20;;;;;;;17.23;65.18;96938.25;2070125;28;20297;-68
2022/10/30 07:30:57;;;;;;;28.10;3.80;;;;;;;17.17;64.92;96948.38;2071849;28;20285;-68
2022/10/30 07:31:58;;;;;;;11.52;3.47;;;;;;;16.90;65.65;96939.50;2071309;28;20248;-69
2022/10/30 07:33:06;;;;;;;9.43;3.17;;;;;;;18.05;62.83;96931.84;2073495;28;20199;-68
2022/10/30 07:34:07;;;;;;;14.75;3.85;;;;;;;18.77;59.67;96934.59;2072895;28;20221;-68
2022/10/30 07:35:11;;;;;;;21.90;4.43;;;;;;;19.29;58.06;96944.09;2071902;28;20356;-69
2022/10/30 07:43:03;;;;;;;10.30;3.50;;;;;;;21.36;53.22;96949.03;2071641;28;20265;-69
2022/10/30 07:44:05;;;;;;;11.25;3.97;;;;;;;21.49;52.74;96946.19;2073211;28;20876;-69
2022/10/30 07:45:07;;;;;;;18.95;4.00;;;;;;;21.71;51.78;96950.53;2066808;28;20305;-70
2022/10/30 07:46:13;;;;;;;12.00;4.53;;;;;;;21.91;51.25;96948.84;2071924;28;20199;-69
2022/10/30 07:47:15;;;;;;;19.77;4.38;;;;;;;21.59;51.49;96946.28;2071664;28;20273;-69
2022/10/30 07:48:16;;;;;;;17.02;3.58;;;;;;;21.87;51.16;96949.25;2072595;28;20550;-67
2022/10/30 07:49:18;;;;;;;12.18;3.83;;;;;;;22.28;50.55;96945.66;2074656;28;20198;-67
2022/10/30 07:50:20;;;;;;;15.27;3.97;;;;;;;22.54;49.70;96949.66;2074141;28;20657;-67
2022/10/30 07:51:21;;;;;;;9.80;3.50;;;;;;;22.73;48.97;96946.19;2071613;28;20203;-67
2022/10/30 07:52:22;;;;;;;9.80;3.40;;;;;;;22.63;49.22;96925.75;2070828;28;20342;-66
2022/10/30 07:53:24;;;;;;;16.95;3.63;;;;;;;22.77;48.33;96929.81;2073477;28;20222;-66
2022/10/30 07:54:25;;;;;;;16.30;4.85;;;;;;;22.90;48.71;96937.53;2074480;28;20297;-67
2022/10/30 07:55:27;;;;;;;16.63;4.93;;;;;;;23.39;47.65;96950.03;2071755;28;20235;-67
2022/10/30 07:56:28;;;;;;;9.93;3.72;;;;;;;23.63;46.95;96918.47;2068502;28;20334;-66
2022/10/30 07:57:38;;;;;;;14.15;4.45;;;;;;;22.55;48.80;96952.22;2071795;28;20221;-66
2022/10/30 07:58:39;;;;;;;15.68;3.67;;;;;;;22.03;50.33;96957.59;2074869;28;20232;-66
2022/10/30 07:59:46;;;;;;;14.30;3.95;;;;;;;22.76;50.16;96945.94;2075913;28;20244;-66
2022/10/30 08:00:52;;;;;;;10.30;3.40;;;;;;;22.12;50.65;96946.13;2071516;28;20229;-66
2022/10/30 08:01:59;;;;;;;9.85;3.70;;;;;;;22.51;50.54;96950.78;2066255;28;20241;-66
2022/10/30 08:03:01;;;;;;;24.27;3.55;;;;;;;23.87;47.46;96942.94;2065690;28;20230;-66
2022/10/30 08:04:03;;;;;;;21.25;3.78;;;;;;;23.59;47.20;96950.88;2072708;28;20194;-66
2022/10/30 08:05:05;;;;;;;9.98;3.45;;;;;;;22.60;49.17;96927.81;2074759;28;20194;-67
2022/10/30 08:06:07;;;;;;;17.52;4.53;;;;;;;22.31;50.38;96947.22;2073609;28;20233;-66
2022/10/30 08:07:13;;;;;;;15.40;4.07;;;;;;;23.04;50.10;96946.13;2072346;28;20203;-66
2022/10/30 08:08:14;;;;;;;14.45;5.72;;;;;;;23.36;48.29;96961.81;2073463;28;21097;-66
2022/10/30 08:09:16;;;;;;;20.27;5.33;;;;;;;22.25;50.39;96948.56;2071025;28;20290;-69
2022/10/30 08:10:17;;;;;;;13.60;5.60;;;;;;;21.73;51.88;96943.28;2071383;28;20428;-69
2022/10/30 08:11:19;;;;;;;17.33;7.40;;;;;;;22.25;51.35;96953.88;2069419;28;20821;-69
2022/10/30 08:12:20;;;;;;;18.40;7.63;;;;;;;23.77;48.59;96951.81;2067565;28;21065;-69
2022/10/30 08:13:22;;;;;;;17.50;6.10;;;;;;;23.96;47.60;96940.28;2071290;28;20518;-69
2022/10/30 08:14:23;;;;;;;16.70;6.20;;;;;;;23.87;48.01;96951.81;2073743;28;20541;-69
2022/10/30 08:15:25;;;;;;;12.17;6.13;;;;;;;23.73;48.48;96952.25;2074181;28;20836;-69
2022/10/30 08:16:26;;;;;;;12.17;5.13;;;;;;;23.87;47.99;96926.97;2074430;28;20499;-69
2022/10/30 08:17:28;;;;;;;14.77;5.93;;;;;;;23.08;48.94;96940.34;2072848;28;20545;-69
2022/10/30 08:18:30;;;;;;;17.83;6.20;;;;;;;23.21;50.21;96955.25;2071904;28;20425;-69
2022/10/30 08:19:31;;;;;;;11.60;5.60;;;;;;;23.26;49.30;96945.88;2072457;28;20533;-69
2022/10/30 08:20:32;;;;;;;9.40;5.30;;;;;;;23.50;48.74;96949.06;2070262;28;20516;-69
2022/10/30 08:21:34;;;;;;;15.87;5.60;;;;;;;24.79;46.52;96954.69;2069582;28;20792;-70
2022/10/30 08:22:46;;;;;;;15.93;5.23;;;;;;;25.26;45.50;96953.63;2067879;28;20499;-71
2022/10/30 08:23:47;;;;;;;12.60;5.63;;;;;;;25.65;44.01;96939.09;2072001;28;20522;-70
2022/10/30 08:24:49;;;;;;;17.90;6.13;;;;;;;25.34;44.68;96945.66;2072771;28;20565;-70
2022/10/30 08:25:50;;;;;;;13.53;5.10;;;;;;;24.69;46.25;96954.72;2073190;28;20468;-70
2022/10/30 08:26:56;;;;;;;11.07;4.80;;;;;;;25.50;45.27;96947.69;2072921;28;20516;-70
2022/10/30 08:27:59;;;;;;;19.57;6.10;;;;;;;26.29;43.31;96954.91;2069118;28;20589;-70
2022/10/30 08:29:00;;;;;;;15.43;5.37;;;;;;;25.49;44.25;96958.53;2069746;28;20464;-70
2022/10/30 08:30:02;;;;;;;19.00;5.90;;;;;;;25.66;44.03;96935.44;2067543;28;20881;-69
2022/10/30 08:31:04;;;;;;;13.47;5.87;;;;;;;26.58;42.87;96951.84;2066406;28;20552;-69
2022/10/30 08:32:09;;;;;;;18.37;7.00;;;;;;;27.53;40.91;96951.53;2060720;28;20726;-69
2022/10/30 08:33:14;;;;;;;18.03;6.00;;;;;;;27.86;40.38;96937.25;2064595;28;20462;-68
2022/10/30 08:34:16;;;;;;;12.93;5.57;;;;;;;27.74;40.39;96949.34;2066312;28;21090;-70
2022/10/30 08:35:17;;;;;;;13.17;6.20;;;;;;;26.40;42.25;96950.09;2064203;28;20833;-70
2022/10/30 08:36:20;;;;;;;19.07;5.40;;;;;;;25.91;43.10;96920.38;2065842;28;20495;-70
2022/10/30 08:37:22;;;;;;;11.83;5.70;;;;;;;25.65;44.66;96952.47;2060334;28;20465;-69
2022/10/30 08:38:24;;;;;;;10.93;4.97;;;;;;;27.50;41.09;96930.44;2060565;28;20906;-69
2022/10/30 08:39:26;;;;;;;11.17;4.97;;;;;;;27.67;40.71;96949.19;2064452;28;21222;-67
2022/10/30 08:40:27;;;;;;;17.80;4.70;;;;;;;27.62;40.37;96930.91;2069748;28;20463;-65
2022/10/30 08:41:29;;;;;;;10.07;4.47;;;;;;;25.89;43.52;96952.63;2068709;28;20912;-67
2022/10/30 08:42:30;;;;;;;15.40;3.57;;;;;;;27.13;41.69;96942.44;2069148;28;20487;-67
2022/10/30 08:43:32;;;;;;;14.33;4.33;;;;;;;28.14;39.72;96951.13;2066812;28;20992;-68
2022/10/30 08:44:33;;;;;;;13.50;4.77;;;;;;;28.31;39.58;96945.72;2067737;28;20459;-67
2022/10/30 08:45:34;;;;;;;12.20;5.07;;;;;;;28.10;40.30;96941.75;2067345;28;20457;-68
2022/10/30 08:46:36;;;;;;;8.37;3.07;;;;;;;26.83;41.71;96947.41;2066042;28;20520;-68
2022/10/30 08:47:38;;;;;;;15.33;3.83;;;;;;;26.63;42.49;96943.31;2065830;28;20543;-68
2022/10/30 08:48:39;;;;;;;8.73;3.50;;;;;;;27.25;41.55;96942.09;2066019;28;20432;-68
2022/10/30 08:49:40;;;;;;;17.93;4.53;;;;;;;28.18;40.04;96935.53;2064775;28;20441;-67
2022/10/30 08:50:43;;;;;;;15.30;4.37;;;;;;;28.56;40.18;96943.78;2066062;28;20950;-68
2022/10/30 08:51:44;;;;;;;16.10;4.10;;;;;;;29.45;38.28;96954.19;2066506;28;20445;-67
2022/10/30 08:52:46;;;;;;;16.17;3.97;;;;;;;29.91;37.71;96953.28;2066650;28;20487;-67
2022/10/30 08:53:52;;;;;;;15.47;4.10;;;;;;;29.76;37.82;96958.63;2070453;28;20424;-67
2022/10/30 08:54:53;;;;;;;7.10;3.70;;;;;;;30.25;36.79;96943.03;2063068;28;20453;-68
2022/10/30 08:55:55;;;;;;;8.57;3.10;;;;;;;30.31;37.03;96950.34;2063838;28;20476;-67
2022/10/30 08:56:56;;;;;;;11.93;4.73;;;;;;;29.83;37.25;96955.19;2063962;28;20527;-67
2022/10/30 08:57:58;;;;;;;11.70;4.17;;;;;;;28.60;39.16;96941.56;2065248;28;20503;-68
2022/10/30 08:59:00;;;;;;;9.30;3.60;;;;;;;28.65;39.36;96949.94;2068111;28;20473;-68
2022/10/30 09:05:00;;;;;;;17.27;3.30;;;;;;;31.26;35.39;96948.63;2069134;28;20836;-68
2022/10/30 09:06:02;;;;;;;10.33;3.60;;;;;;;31.12;34.96;96951.38;2063470;28;20436;-68
2022/10/30 09:07:03;;;;;;;11.17;3.70;;;;;;;30.81;35.37;96944.38;2063120;28;20429;-68
2022/10/30 09:08:10;;;;;;;11.03;3.77;;;;;;;30.76;35.06;96945.75;2063740;28;20442;-68
2022/10/30 09:09:13;;;;;;;6.70;2.73;;;;;;;30.90;34.62;96940.53;2068381;28;20520;-68
2022/10/30 09:10:14;;;;;;;11.73;3.50;;;;;;;30.79;34.63;96944.53;2067103;28;20514;-66
2022/10/30 09:11:16;;;;;;;6.83;2.90;;;;;;;30.57;35.21;96938.28;2067040;28;20481;-66
2022/10/30 09:12:17;;;;;;;10.33;3.30;;;;;;;30.62;35.26;96946.63;2064770;28;20435;-66
2022/10/30 09:13:19;;;;;;;13.83;3.37;;;;;;;31.03;34.60;96951.47;2066234;28;21006;-66
2022/10/30 09:14:20;;;;;;;12.87;3.63;;;;;;;30.95;34.84;96947.00;2067260;28;20440;-67
2022/10/30 09:15:26;;;;;;;12.40;4.20;;;;;;;29.39;37.49;96949.50;2067526;28;21064;-67
2022/10/30 09:16:27;;;;;;;10.30;3.60;;;;;;;28.39;39.38;96943.00;2066598;28;20864;-67
2022/10/30 09:17:29;;;;;;;9.50;3.27;;;;;;;30.00;37.48;96948.66;2064758;28;20495;-67
2022/10/30 09:18:30;;;;;;;13.07;3.30;;;;;;;30.85;35.88;96946.47;2061486;28;20436;-65
2022/10/30 09:19:32;;;;;;;11.13;3.30;;;;;;;27.86;39.58;96943.44;2064030;28;20965;-65
2022/10/30 09:20:33;;;;;;;14.20;3.70;;;;;;;28.08;39.80;96935.72;2063922;28;20433;-67
2022/10/30 09:21:34;;;;;;;9.73;3.80;;;;;;;29.93;37.49;96943.19;2065833;28;21290;-67
2022/10/30 09:22:40;;;;;;;32.83;19.93;;;;;;;30.66;36.39;96947.91;2064292;28;20881;-67
2022/10/30 09:23:42;;;;;;;12.20;3.77;;;;;;;29.57;38.43;96951.06;2067114;28;20467;-66
2022/10/30 09:24:44;;;;;;;13.83;3.30;;;;;;;31.04;36.16;96955.81;2068222;28;20460;-66
2022/10/30 09:25:45;;;;;;;12.73;4.00;;;;;;;31.65;34.94;96951.06;2065823;28;20468;-66
2022/10/30 09:26:47;;;;;;;17.13;3.47;;;;;;;32.41;34.40;96955.75;2062376;28;20480;-67
2022/10/30 09:27:51;;;;;;;11.13;3.33;;;;;;;30.60;36.56;96956.75;2066960;28;20669;-68
2022/10/30 09:28:53;;;;;;;11.17;3.50;;;;;;;30.58;36.66;96956.94;2070656;28;20460;-66
2022/10/30 09:29:54;;;;;;;12.50;3.27;;;;;;;31.02;36.67;96948.94;2063725;28;20425;-70
2022/10/30 09:30:56;;;;;;;11.30;3.33;;;;;;;29.80;37.58;96948.31;2064307;28;20963;-67
2022/10/30 09:31:59;;;;;;;7.23;2.43;;;;;;;30.78;37.82;96954.50;2067286;28;20520;-70
2022/10/30 09:33:01;;;;;;;7.13;2.80;;;;;;;31.81;35.76;96953.47;2067573;28;20476;-64
2022/10/30 09:34:06;;;;;;;8.37;2.77;;;;;;;31.30;36.42;96959.00;2069049;28;21002;-64
2022/10/30 09:35:08;;;;;;;8.50;3.30;;;;;;;29.84;38.09;96951.47;2067819;28;20440;-64
2022/10/30 09:36:09;;;;;;;17.80;3.47;;;;;;;30.48;38.70;96951.00;2064207;28;20452;-64
2022/10/30 09:37:10;;;;;;;14.73;3.97;;;;;;;31.97;36.10;96946.09;2065342;28;20514;-64
2022/10/30 09:38:12;;;;;;;8.20;2.50;;;;;;;30.50;37.80;96956.22;2062338;28;20533;-64
2022/10/30 09:39:13;;;;;;;9.33;2.90;;;;;;;31.18;37.94;96950.59;2059113;28;20578;-64
2022/10/30 09:40:46;;;;;;;14.50;3.50;;;;;;;31.29;38.19;96946.53;2065535;28;20545;-64
2022/10/30 09:42:02;;;;;;;15.83;3.90;;;;;;;31.06;38.30;96959.19;2065246;28;20462;-64
2022/10/30 09:43:48;;;;;;;9.90;3.07;;;;;;;31.17;39.49;96957.03;2063930;28;20428;-64
2022/10/30 09:45:04;;;;;;;8.60;2.60;;;;;;;30.83;37.10;96934.22;2063598;28;20478;-64
2022/10/30 09:46:44;;;;;;;9.27;2.90;;;;;;;30.90;36.93;96945.91;2067405;28;20763;-64
2022/10/30 09:48:03;;;;;;;14.23;2.70;;;;;;;31.19;36.75;96960.38;2064067;28;21106;-64
2022/10/30 09:49:10;;;;;;;15.70;3.40;;;;;;;32.29;37.66;96960.91;2062136;28;20984;-65
2022/10/30 09:50:28;;;;;;;16.50;4.50;;;;;;;32.82;35.50;96954.09;2064383;28;20471;-64
2022/10/30 09:58:43;;;;;;;13.60;2.50;;;;;;;33.65;32.85;96961.13;2065737;28;20904;-65
2022/10/30 09:59:59;;;;;;;9.50;3.27;;;;;;;34.69;33.06;96960.56;2060639;28;20539;-64
2022/10/30 10:01:13;;;;;;;10.13;2.60;;;;;;;35.92;30.89;96939.59;2063180;28;20759;-65
2022/10/30 10:02:16;;;;;;;4.83;2.30;;;;;;;36.05;31.36;96963.09;2064639;28;20934;-64
2022/10/30 10:03:50;;;;;;;7.20;2.53;;;;;;;34.46;32.76;96962.75;2065690;28;20428;-65
2022/10/30 10:05:01;;;;;;;8.20;2.37;;;;;;;34.16;32.85;96962.38;2067045;28;20645;-65
2022/10/30 10:06:10;;;;;;;12.17;3.20;;;;;;;34.74;31.73;96961.63;2063909;28;20463;-64
2022/10/30 10:07:36;;;;;;;8.20;2.50;;;;;;;35.29;31.24;96955.69;2062616;28;21152;-65
2022/10/30 10:08:40;;;;;;;5.80;2.47;;;;;;;35.11;30.37;96961.03;2066320;28;20857;-65
2022/10/30 10:09:43;;;;;;;7.40;2.57;;;;;;;34.70;32.63;96940.56;2063693;28;20528;-65
2022/10/30 10:10:59;;;;;;;6.83;2.57;;;;;;;34.48;30.96;96946.28;2065493;28;20440;-65
2022/10/30 10:12:37;;;;;;;7.73;2.57;;;;;;;32.95;32.69;96958.69;2064645;28;20507;-65
2022/10/30 10:13:46;;;;;;;7.53;2.53;;;;;;;31.59;34.46;96950.78;2060229;28;20991;-65
2022/10/30 10:14:48;;;;;;;11.10;2.80;;;;;;;32.26;34.02;96958.56;2063581;28;20484;-65
2022/10/30 10:15:54;;;;;;;12.60;2.50;;;;;;;34.08;32.39;96966.16;2066205;28;20962;-65
2022/10/30 10:16:59;;;;;;;9.73;2.83;;;;;;;34.96;31.83;96967.56;2065616;28;20507;-65
2022/10/30 10:18:05;;;;;;;5.23;2.57;;;;;;;35.83;30.01;96958.03;2065739;28;20464;-65
2022/10/30 10:19:19;;;;;;;8.73;2.70;;;;;;;35.59;29.21;96960.53;2066040;28;20579;-65
2022/10/30 10:20:31;;;;;;;7.40;2.43;;;;;;;34.29;30.22;96946.09;2063971;28;20548;-65
2022/10/30 10:21:43;;;;;;;9.93;3.00;;;;;;;34.88;30.45;96961.56;2067927;28;20527;-65
2022/10/30 10:22:49;;;;;;;10.63;2.93;;;;;;;34.79;30.33;96959.09;2067411;28;20923;-65
2022/10/30 10:24:03;;;;;;;8.70;2.80;;;;;;;34.48;30.45;96959.81;2069657;28;20443;-65
2022/10/30 10:25:11;;;;;;;7.10;2.53;;;;;;;34.15;32.11;96963.41;2069078;28;20875;-65
2022/10/30 10:26:39;;;;;;;14.30;2.73;;;;;;;34.76;30.37;96964.09;2065406;28;20428;-65
2022/10/30 10:27:58;;;;;;;7.03;2.40;;;;;;;35.12;29.94;96957.25;2050424;28;21227;-65
2022/10/30 10:29:14;;;;;;;4.30;2.10;;;;;;;35.27;30.89;96956.97;2065084;28;20950;-64
2022/10/30 10:30:19;;;;;;;6.83;2.50;;;;;;;35.11;30.19;96956.44;2068765;28;20471;-65
2022/10/30 10:31:37;;;;;;;4.80;2.40;;;;;;;35.02;30.08;96959.63;2066506;28;20428;-65
2022/10/30 10:33:21;;;;;;;9.60;2.60;;;;;;;35.45;30.44;96951.66;2064867;28;21080;-65
2022/10/30 10:35:05;;;;;;;5.20;2.97;;;;;;;36.17;30.70;96950.44;2066176;28;20836;-65
2022/10/30 10:36:11;;;;;;;6.40;2.53;;;;;;;36.62;28.68;96949.31;2064679;28;20538;-65
2022/10/30 10:37:30;;;;;;;10.00;3.10;;;;;;;36.55;28.20;96945.88;2062310;28;20944;-65
2022/10/30 10:39:06;;;;;;;17.80;3.70;;;;;;;36.61;29.79;96959.38;2068594;28;20486;-65
2022/10/30 10:40:43;;;;;;;9.77;2.97;;;;;;;35.04;31.60;96949.41;2063763;28;20464;-65
2022/10/30 10:41:59;;;;;;;8.60;3.07;;;;;;;33.50;34.76;96953.22;2062320;28;21026;-65
2022/10/30 10:43:24;;;;;;;6.50;2.40;;;;;;;34.20;33.92;96958.19;2066944;28;20503;-65
2022/10/30 10:44:31;;;;;;;11.10;3.10;;;;;;;35.32;33.55;96954.44;2047982;28;20549;-65
2022/10/30 10:45:54;;;;;;;8.93;3.57;;;;;;;35.41;32.80;96953.13;2067113;28;20519;-65
2022/10/30 10:47:53;;;;;;;9.03;3.17;;;;;;;35.04;33.34;96939.38;2069861;28;20489;-65
2022/10/30 10:49:16;;;;;;;6.40;2.60;;;;;;;34.87;34.47;96946.34;2051352;28;20576;-65
2022/10/30 10:50:27;;;;;;;7.87;2.93;;;;;;;33.91;34.87;96954.91;2065151;28;20467;-65
2022/10/30 10:51:42;;;;;;;7.90;3.07;;;;;;;33.58;34.88;96947.59;2068048;28;20950;-65
2022/10/30 10:52:57;;;;;;;9.53;2.80;;;;;;;33.12;35.54;96949.19;2065563;28;20539;-65
2022/10/30 10:54:05;;;;;;;6.43;2.67;;;;;;;33.93;35.55;96939.28;2064109;28;21359;-66
2022/10/30 10:55:16;;;;;;;6.03;2.10;;;;;;;35.36;32.51;96942.09;2067507;28;20965;-65
2022/10/30 10:56:24;;;;;;;13.27;3.40;;;;;;;35.92;31.91;96942.31;2067000;28;20764;-65
2022/10/30 11:04:11;;;;;;;12.57;2.80;;;;;;;33.69;34.23;96930.72;2063225;28;20444;-65
2022/10/30 11:05:16;;;;;;;8.57;2.60;;;;;;;33.67;35.31;96935.53;2059562;28;20880;-65
2022/10/30 11:06:21;;;;;;;11.33;2.03;;;;;;;35.10;33.58;96932.25;2059728;28;20421;-65
2022/10/30 11:07:29;;;;;;;8.20;3.00;;;;;;;35.82;32.56;96933.81;2059709;28;20560;-65
2022/10/30 11:08:34;;;;;;;5.50;2.10;;;;;;;35.30;33.81;96926.66;2062438;28;20940;-65
2022/10/30 11:09:35;;;;;;;8.20;2.87;;;;;;;33.63;34.60;96911.78;2062920;28;20455;-65
2022/10/30 11:10:37;;;;;;;10.23;2.67;;;;;;;34.54;34.00;96934.59;2068065;28;20454;-65
2022/10/30 11:11:38;;;;;;;8.80;2.73;;;;;;;34.73;33.73;96930.13;2066787;28;20448;-65
2022/10/30 11:12:40;;;;;;;10.80;3.30;;;;;;;35.12;33.33;96922.00;2063914;28;20530;-65
2022/10/30 11:13:44;;;;;;;10.40;2.57;;;;;;;34.33;33.30;96928.41;2065556;28;20596;-65
2022/10/30 11:20:03;;;;;;;5.50;1.87;;;;;;;35.06;30.84;96928.28;2061958;28;20492;-65
2022/10/30 11:21:42;;;;;;;8.07;2.80;;;;;;;35.33;29.25;96923.53;2062381;28;20571;-65
2022/10/30 11:22:48;;;;;;;4.77;1.80;;;;;;;34.54;29.33;96922.88;2042621;29;20494;-65
2022/10/30 11:23:50;;;;;;;10.30;2.10;;;;;;;34.26;29.95;96929.41;2062676;28;20460;-65
2022/10/30 11:24:51;;;;;;;8.47;2.07;;;;;;;34.22;29.14;96915.50;2066356;28;20508;-66
2022/10/30 11:25:53;;;;;;;7.93;2.43;;;;;;;34.21;31.32;96919.22;2065314;28;20963;-66
2022/10/30 11:26:57;;;;;;;6.83;3.03;;;;;;;33.67;32.30;96918.44;2061989;28;20474;-65
2022/10/30 11:28:02;;;;;;;9.80;2.67;;;;;;;32.70;33.53;96921.38;2059349;28;20492;-66
2022/10/30 11:29:11;;;;;;;5.93;2.23;;;;;;;32.87;33.65;96924.56;2063496;28;20429;-67
2022/10/30 11:30:18;;;;;;;6.03;2.67;;;;;;;33.12;33.34;96924.00;2064796;28;20877;-66
2022/10/30 11:31:22;;;;;;;5.93;2.40;;;;;;;33.01;32.29;96938.97;2070100;28;20473;-67
2022/10/30 11:39:10;;;;;;;8.63;3.93;;;;;;;31.09;38.46;96921.06;2064864;28;21171;-68
2022/10/30 11:40:11;;;;;;;13.10;2.57;;;;;;;31.12;38.74;96919.84;2065663;28;21038;-67
2022/10/30 11:41:13;;;;;;;25.90;18.30;;;;;;;31.71;37.45;96916.03;2068659;28;20498;-67
2022/10/30 11:42:18;;;;;;;3.10;1.83;;;;;;;31.78;37.11;96921.47;2063769;28;20512;-68
2022/10/30 11:43:22;;;;;;;7.63;2.20;;;;;;;31.52;37.69;96912.09;2063014;28;20468;-68
2022/10/30 11:44:29;;;;;;;7.70;2.60;;;;;;;30.92;38.11;96893.50;2068282;28;20463;-67
2022/10/30 11:45:35;;;;;;;4.87;2.87;;;;;;;31.12;38.74;96919.84;2066144;28;20456;-68
2022/10/30 11:46:37;;;;;;;9.00;3.03;;;;;;;30.16;38.97;96899.19;2064622;28;20832;-68
2022/10/30 11:47:43;;;;;;;9.70;2.70;;;;;;;30.24;39.59;96917.09;2062121;28;20483;-67
2022/10/30 11:48:45;;;;;;;7.57;2.70;;;;;;;30.59;39.48;96922.78;2062117;28;21055;-67
2022/10/30 11:49:52;;;;;;;4.67;2.30;;;;;;;30.33;40.18;96918.66;2062698;28;20516;-66
2022/10/30 11:51:02;;;;;;;12.93;2.87;;;;;;;29.81;40.05;96899.72;2063232;28;20515;-67
2022/10/30 11:52:05;;;;;;;8.20;2.17;;;;;;;29.82;39.15;96911.31;2063175;28;20912;-67
2022/10/30 11:53:16;;;;;;;4.97;2.03;;;;;;;29.87;39.89;96911.59;2063109;28;20465;-67
2022/10/30 11:54:20;;;;;;;7.87;2.23;;;;;;;30.15;39.24;96912.84;2064755;28;20432;-67
2022/10/30 11:55:38;;;;;;;5.73;2.20;;;;;;;30.33;39.60;96915.16;2060373;28;20439;-67
2022/10/30 12:02:03;;;;;;;7.23;2.03;;;;;;;28.90;37.74;96912.22;2066626;28;20428;-66
2022/10/30 12:03:26;;;;;;;11.50;1.87;;;;;;;29.05;40.28;96906.91;2065045;28;20472;-66
2022/10/30 12:04:31;;;;;;;7.47;1.97;;;;;;;29.00;36.97;96889.47;2068033;28;20434;-68
2022/10/30 12:05:37;;;;;;;5.60;2.10;;;;;;;27.99;39.29;96905.34;2067798;28;20556;-68
2022/10/30 12:06:38;;;;;;;7.23;2.27;;;;;;;28.83;40.07;96910.22;2062061;28;20437;-66
2022/10/30 12:07:40;;;;;;;9.10;2.20;;;;;;;29.14;38.61;96895.91;2059647;28;20480;-66
2022/10/30 12:08:58;;;;;;;5.60;2.40;;;;;;;29.04;38.18;96905.22;2068627;28;20463;-66
2022/10/30 12:10:03;;;;;;;10.37;2.27;;;;;;;29.32;37.56;96898.31;2068871;28;20511;-66
2022/10/30 12:11:05;;;;;;;14.60;1.87;;;;;;;29.39;37.01;96908.34;2067184;28;20773;-66
2022/10/30 12:12:27;;;;;;;10.67;2.50;;;;;;;29.42;35.14;96903.47;2068232;28;20472;-67
2022/10/30 12:13:38;;;;;;;8.70;2.03;;;;;;;29.60;35.08;96907.69;2069548;28;20521;-67
2022/10/30 12:14:39;;;;;;;4.80;1.90;;;;;;;29.81;34.45;96902.41;2068458;28;20465;-66
2022/10/30 12:15:42;;;;;;;12.70;7.67;;;;;;;29.61;33.65;96879.72;2067385;28;20430;-67
2022/10/30 12:16:46;;;;;;;19.30;6.63;;;;;;;29.56;35.35;96911.72;2068311;28;20775;-66
2022/10/30 12:17:52;;;;;;;13.47;6.37;;;;;;;29.37;35.54;96896.94;2066596;28;20500;-66
2022/10/30 12:19:04;;;;;;;20.50;10.53;;;;;;;29.47;35.04;96906.44;2066211;28;20570;-66
2022/10/30 12:20:13;;;;;;;10.73;5.40;;;;;;;29.34;35.66;96886.56;2065566;28;21329;-65
2022/10/30 12:21:18;;;;;;;6.00;2.23;;;;;;;29.34;33.10;96886.56;2059756;28;20473;-65
2022/10/30 12:22:26;;;;;;;7.53;2.20;;;;;;;29.34;33.85;96897.31;2057748;28;20461;-64
2022/10/30 12:23:27;;;;;;;4.73;1.90;;;;;;;29.32;34.96;96906.38;2056131;28;20521;-65
2022/10/30 12:24:32;;;;;;;6.07;1.87;;;;;;;29.60;33.86;96895.03;2057314;28;20476;-65
2022/10/30 12:25:35;;;;;;;4.73;1.90;;;;;;;29.71;33.53;96892.94;2056055;28;20433;-65
2022/10/30 12:26:38;;;;;;;7.93;1.83;;;;;;;29.55;33.02;96875.94;2055615;28;20513;-65
2022/10/30 12:27:40;;;;;;;9.00;2.33;;;;;;;29.24;33.26;96887.63;2053272;28;20465;-65
2022/10/30 12:28:57;;;;;;;9.90;2.17;;;;;;;29.27;33.64;96897.19;2060917;28;20532;-65
2022/10/30 12:30:02;;;;;;;8.63;2.23;;;;;;;29.34;33.86;96897.31;2059947;28;20460;-65
2022/10/30 12:31:16;;;;;;;4.30;1.90;;;;;;;29.25;33.41;96894.63;2055881;28;20521;-65
2022/10/30 12:39:25;;;;;;;6.93;1.97;;;;;;;29.74;35.06;96879.94;2059025;28;20683;-66
2022/10/30 12:40:30;;;;;;;5.13;1.70;;;;;;;29.92;32.55;96886.84;2061700;28;20462;-66
2022/10/30 12:41:46;;;;;;;6.10;1.93;;;;;;;29.80;32.21;96891.81;2062860;28;20465;-65
2022/10/30 12:42:57;;;;;;;8.47;1.90;;;;;;;29.50;32.96;96848.75;2057810;28;20503;-65
2022/10/30 12:44:22;;;;;;;3.10;1.40;;;;;;;29.84;32.65;96886.91;2058609;28;20457;-65
2022/10/30 12:45:30;;;;;;;3.37;1.50;;;;;;;30.06;33.32;96885.19;2057315;28;21179;-65
2022/10/30 12:47:03;;;;;;;4.43;1.83;;;;;;;29.75;34.20;96880.78;2059188;28;20922;-65
2022/10/30 12:48:21;;;;;;;7.93;1.80;;;;;;;29.94;32.77;96884.78;2059590;28;20469;-66
2022/10/30 12:49:38;;;;;;;14.03;1.80;;;;;;;30.00;32.41;96892.13;2058273;28;20508;-65
2022/10/30 12:51:02;;;;;;;8.13;1.83;;;;;;;29.44;32.32;96852.16;2058460;28;21055;-65
2022/10/30 12:52:25;;;;;;;6.30;2.10;;;;;;;29.36;32.60;96887.19;2054599;28;20465;-65
2022/10/30 12:53:35;;;;;;;4.73;1.40;;;;;;;29.09;33.01;96884.88;2056922;28;20774;-65
2022/10/30 12:55:07;;;;;;;8.40;1.77;;;;;;;28.95;34.73;96880.25;2068554;28;20517;-65
2022/10/30 12:56:16;;;;;;;9.50;1.60;;;;;;;28.47;35.71;96883.88;2064234;28;20476;-65
2022/10/30 12:57:22;;;;;;;6.50;2.00;;;;;;;28.63;36.19;96877.59;2054455;28;20881;-65
2022/10/30 12:58:41;;;;;;;5.80;2.00;;;;;;;28.49;38.39;96884.56;2055246;28;20434;-65
2022/10/30 12:59:56;;;;;;;5.23;1.90;;;;;;;28.18;39.44;96874.63;2053129;28;21018;-65
2022/10/30 13:01:12;;;;;;;9.33;3.13;;;;;;;28.21;40.79;96870.75;2058358;28;20468;-65
2022/10/30 13:02:35;;;;;;;4.32;1.67;;;;;;;28.56;40.19;96870.44;2066026;28;20435;-65
2022/10/30 13:03:58;;;;;;;7.45;2.17;;;;;;;28.75;38.33;96875.38;2062347;28;20227;-65
2022/10/30 13:05:16;;;;;;;8.25;1.80;;;;;;;28.26;40.08;96857.63;2058914;28;20643;-65
2022/10/30 13:06:24;;;;;;;3.95;2.20;;;;;;;28.52;39.92;96873.47;2058186;28;20772;-65
2022/10/30 13:07:46;;;;;;;5.47;2.57;;;;;;;28.74;36.57;96844.13;2058313;28;20493;-66
2022/10/30 13:08:53;;;;;;;4.13;2.33;;;;;;;29.22;36.42;96878.06;2059508;28;20513;-65
2022/10/30 13:09:57;;;;;;;4.43;2.00;;;;;;;29.23;36.90;96879.72;2060739;28;20342;-65
2022/10/30 13:11:08;;;;;;;9.82;2.13;;;;;;;28.96;37.18;96852.38;2057778;28;20294;-65
2022/10/30 13:12:16;;;;;;;6.63;2.03;;;;;;;28.73;39.27;96866.63;2059675;28;20806;-66
2022/10/30 13:13:24;;;;;;;7.50;2.10;;;;;;;28.75;39.61;96867.31;2058271;28;20227;-65
2022/10/30 13:14:43;;;;;;;4.70;2.00;;;;;;;28.73;40.12;96863.94;2058120;28;20418;-66
2022/10/30 13:15:52;;;;;;;12.50;2.00;;;;;;;28.82;38.88;96876.34;2057521;28;20512;-66
2022/10/30 13:16:53;;;;;;;7.18;2.10;;;;;;;28.93;37.57;96860.81;2052216;28;20909;-65
2022/10/30 13:17:57;;;;;;;5.50;1.60;;;;;;;29.19;39.33;96865.78;2058338;28;20306;-66
2022/10/30 13:19:01;;;;;;;8.80;2.00;;;;;;;29.20;40.63;96839.75;2069302;28;20441;-66
2022/10/30 13:20:11;;;;;;;4.63;1.77;;;;;;;28.93;41.94;96872.38;2058482;28;20517;-66
2022/10/30 13:21:23;;;;;;;9.27;2.10;;;;;;;29.49;41.86;96858.66;2054187;28;20469;-66
2022/10/30 13:22:51;;;;;;;5.60;1.80;;;;;;;29.85;40.28;96872.44;2068544;28;20317;-66
2022/10/30 13:30:22;;;;;;;8.10;2.43;;;;;;;30.16;37.85;96868.72;2050389;28;20739;-66
2022/10/30 13:31:59;;;;;;;5.53;1.90;;;;;;;29.61;36.50;96855.53;2046437;28;20962;-65
2022/10/30 13:33:33;;;;;;;6.70;2.30;;;;;;;29.24;37.73;96862.56;2050956;28;20485;-66